createdAt,value
2022-11-04T00:02:05.642Z,1100.40
2022-11-04T00:04:34.857Z,1106.40
2022-11-04T00:07:02.034Z,1105.70
2022-11-04T00:09:30.411Z,1107.90
2022-11-04T00:12:18.418Z,1103.93
2022-11-04T00:14:46.605Z,1112.65
2022-11-04T00:17:21.814Z,1106.40
2022-11-04T00:20:30.277Z,1106.33
2022-11-04T00:23:18.168Z,1102.70
2022-11-04T00:26:04.091Z,1100.78
2022-11-04T00:28:43.520Z,1100.17
2022-11-04T00:31:30.432Z,1098.40
2022-11-04T00:33:59.102Z,1094.22
2022-11-04T00:36:27.804Z,1093.55
2022-11-04T00:38:57.340Z,1086.32
2022-11-04T00:41:28.242Z,1092.68
2022-11-04T00:44:00.710Z,1086.22
2022-11-04T00:46:31.028Z,1090.40
2022-11-04T00:48:58.693Z,1088.75
2022-11-04T00:51:26.032Z,1083.72
2022-11-04T00:53:53.357Z,1085.68
2022-11-04T00:56:21.776Z,1085.53
2022-11-04T00:58:50.009Z,1086.53
2022-11-04T01:01:19.373Z,1093.00
2022-11-04T01:03:50.207Z,1087.47
2022-11-04T01:06:18.415Z,1097.33
2022-11-04T01:08:45.652Z,1088.30
2022-11-04T01:11:13.163Z,1091.22
2022-11-04T01:13:41.364Z,1090.07
2022-11-04T01:16:10.132Z,1089.57
2022-11-04T01:18:38.313Z,1088.70
2022-11-04T01:21:06.918Z,1081.90
2022-11-04T01:23:37.321Z,1094.32
2022-11-04T01:26:19.301Z,1091.82
2022-11-04T01:28:46.744Z,1086.83
2022-11-04T01:31:15.046Z,1090.17
2022-11-04T01:33:42.843Z,1087.40
2022-11-04T01:36:12.321Z,1083.60
2022-11-04T01:38:39.845Z,1089.93
2022-11-04T01:41:08.777Z,1078.60
2022-11-04T01:43:53.350Z,1078.50
2022-11-04T01:46:21.224Z,1083.37
2022-11-04T01:48:48.540Z,1076.90
2022-11-04T01:51:16.869Z,1074.70
2022-11-04T01:53:44.608Z,1079.57
2022-11-04T01:56:13.274Z,1078.78
2022-11-04T01:58:43.170Z,1077.43
2022-11-04T02:01:10.949Z,1085.93
2022-11-04T02:04:18.358Z,1074.00
2022-11-04T02:06:47.516Z,1081.20
2022-11-04T02:09:15.319Z,1077.80
2022-11-04T02:12:03.818Z,1077.38
2022-11-04T02:14:32.158Z,1079.35
2022-11-04T02:17:18.326Z,1076.68
2022-11-04T02:20:07.433Z,1076.47
2022-11-04T02:22:42.242Z,1082.78
2022-11-04T02:25:19.101Z,1080.10
2022-11-04T02:27:46.192Z,1073.37
2022-11-04T02:30:17.589Z,1074.00
2022-11-04T02:33:18.308Z,1080.00
2022-11-04T02:36:05.965Z,1080.82
2022-11-04T02:38:35.936Z,1078.93
2022-11-04T02:41:04.157Z,1076.32
2022-11-04T02:43:37.795Z,1077.93
2022-11-04T02:46:18.337Z,1082.57
2022-11-04T02:48:53.756Z,1076.00
2022-11-04T02:51:50.219Z,1074.65
2022-11-04T02:54:26.378Z,1072.57
2022-11-04T02:56:57.578Z,1075.05
2022-11-04T02:59:42.298Z,1073.18
2022-11-04T03:02:12.363Z,1075.45
2022-11-04T03:04:43.385Z,1071.28
2022-11-04T03:07:17.743Z,1073.30
2022-11-04T03:09:49.091Z,1070.70
2022-11-04T03:12:19.280Z,1070.47
2022-11-04T03:14:54.775Z,1072.82
2022-11-04T03:17:31.285Z,1075.85
2022-11-04T03:20:03.728Z,1067.97
2022-11-04T03:22:34.141Z,1070.82
2022-11-04T03:25:01.827Z,1068.15
2022-11-04T03:27:29.297Z,1066.80
2022-11-04T03:30:01.371Z,1071.97
2022-11-04T03:33:00.140Z,1069.70
2022-11-04T03:35:32.095Z,1070.82
2022-11-04T03:37:59.966Z,1068.37
2022-11-04T03:40:27.451Z,1070.25
2022-11-04T03:43:11.680Z,1068.78
2022-11-04T03:45:40.250Z,1069.40
2022-11-04T03:48:07.791Z,1073.78
2022-11-04T03:50:42.389Z,1071.80
2022-11-04T03:53:11.866Z,1072.15
2022-11-04T03:55:40.997Z,1070.80
2022-11-04T03:58:52.541Z,1067.07
2022-11-04T04:01:25.725Z,1067.43
2022-11-04T04:03:59.234Z,1076.65
2022-11-04T04:06:31.497Z,1075.55
2022-11-04T04:09:10.129Z,1074.95
2022-11-04T04:11:48.059Z,1077.13
2022-11-04T04:14:39.671Z,1080.25
2022-11-04T04:17:31.181Z,1086.18
2022-11-04T04:20:08.983Z,1090.03
2022-11-04T04:23:03.434Z,1085.90
2022-11-04T04:25:51.118Z,1080.55
2022-11-04T04:28:20.298Z,1079.15
2022-11-04T04:30:47.517Z,1073.03
2022-11-04T04:33:16.835Z,1077.45
2022-11-04T04:35:47.422Z,1075.35
2022-11-04T04:38:35.989Z,1073.60
2022-11-04T04:41:57.228Z,1075.95
2022-11-04T04:44:44.069Z,1070.72
2022-11-04T04:47:20.056Z,1070.22
2022-11-04T04:50:06.211Z,1070.82
2022-11-04T04:52:38.423Z,1069.85
2022-11-04T04:55:05.930Z,1073.68
2022-11-04T04:57:33.135Z,1068.28
2022-11-04T05:00:00.615Z,1075.30
2022-11-04T05:02:29.400Z,1070.40
2022-11-04T05:05:06.168Z,1077.75
2022-11-04T05:07:33.412Z,1070.88
2022-11-04T05:10:00.459Z,1078.72
2022-11-04T05:12:47.528Z,1075.47
2022-11-04T05:15:15.380Z,1073.60
2022-11-04T05:17:42.932Z,1078.32
2022-11-04T05:20:11.055Z,1075.20
2022-11-04T05:22:40.891Z,1074.60
2022-11-04T05:25:08.140Z,1083.03
2022-11-04T05:27:35.345Z,1077.43
2022-11-04T05:30:02.751Z,1083.57
2022-11-04T05:32:33.909Z,1083.30
2022-11-04T05:35:01.032Z,1078.22
2022-11-04T05:37:29.786Z,1077.28
2022-11-04T05:39:59.041Z,1082.78
2022-11-04T05:42:26.217Z,1073.70
2022-11-04T05:44:53.499Z,1071.43
2022-11-04T05:47:26.049Z,1075.13
2022-11-04T05:49:56.684Z,1076.82
2022-11-04T05:52:24.944Z,1075.70
2022-11-04T05:54:53.314Z,1077.93
2022-11-04T05:57:21.925Z,1072.93
2022-11-04T05:59:49.372Z,1073.65
2022-11-04T06:02:16.654Z,1074.53
2022-11-04T06:04:46.210Z,1075.95
2022-11-04T06:07:14.330Z,1074.60
2022-11-04T06:09:41.620Z,1076.72
2022-11-04T06:12:15.987Z,1066.95
2022-11-04T06:14:44.551Z,1067.90
2022-11-04T06:17:15.175Z,1075.20
2022-11-04T06:19:43.573Z,1075.38
2022-11-04T06:22:15.593Z,1073.20
2022-11-04T06:24:44.158Z,1075.97
2022-11-04T06:27:12.087Z,1072.03
2022-11-04T06:29:43.612Z,1073.68
2022-11-04T06:32:18.111Z,1075.70
2022-11-04T06:34:54.484Z,1075.93
2022-11-04T06:37:25.576Z,1074.03
2022-11-04T06:39:53.242Z,1075.20
2022-11-04T06:42:22.659Z,1082.57
2022-11-04T06:44:50.608Z,1074.45
2022-11-04T06:47:23.552Z,1076.03
2022-11-04T06:49:57.753Z,1076.30
2022-11-04T06:52:28.256Z,1076.97
2022-11-04T06:55:00.094Z,1076.03
2022-11-04T06:57:27.361Z,1073.78
2022-11-04T06:59:54.514Z,1080.10
2022-11-04T07:02:23.025Z,1081.13
2022-11-04T07:04:50.405Z,1074.45
2022-11-04T07:07:17.591Z,1072.45
2022-11-04T07:09:44.964Z,1066.82
2022-11-04T07:12:12.112Z,1071.10
2022-11-04T07:14:39.410Z,1070.97
2022-11-04T07:17:06.584Z,1073.33
2022-11-04T07:19:35.301Z,1070.38
2022-11-04T07:22:05.236Z,1068.22
2022-11-04T07:24:33.669Z,1070.40
2022-11-04T07:29:34.408Z,1073.10
2022-11-04T07:32:01.573Z,1070.93
2022-11-04T07:34:29.052Z,1072.60
2022-11-04T07:36:56.422Z,1074.73
2022-11-04T07:39:23.853Z,1075.15
2022-11-04T07:41:54.260Z,1076.93
2022-11-04T07:44:24.111Z,1074.90
2022-11-04T07:46:51.273Z,1070.68
2022-11-04T07:49:18.636Z,1072.35
2022-11-04T07:51:45.870Z,1070.75
2022-11-04T07:54:12.938Z,1073.85
2022-11-04T07:56:40.334Z,1072.45
2022-11-04T07:59:07.752Z,1072.22
2022-11-04T08:01:35.316Z,1080.43
2022-11-04T08:04:02.533Z,1076.75
2022-11-04T08:06:31.053Z,1075.13
2022-11-04T08:09:01.355Z,1075.83
2022-11-04T08:11:28.667Z,1070.43
2022-11-04T08:13:56.453Z,1072.03
2022-11-04T08:16:27.702Z,1072.97
2022-11-04T08:19:02.439Z,1069.10
2022-11-04T08:21:30.801Z,1071.88
2022-11-04T08:23:57.941Z,1065.90
2022-11-04T08:26:26.490Z,1070.13
2022-11-04T08:28:54.969Z,1068.78
2022-11-04T08:31:25.241Z,1069.70
2022-11-04T08:33:53.366Z,1072.05
2022-11-04T08:36:20.596Z,1071.65
2022-11-04T08:38:48.326Z,1071.35
2022-11-04T08:41:17.087Z,1068.57
2022-11-04T08:43:45.277Z,1073.30
2022-11-04T08:46:12.828Z,1072.90
2022-11-04T08:48:40.782Z,1070.40
2022-11-04T08:51:16.931Z,1064.22
2022-11-04T08:53:44.113Z,1068.25
2022-11-04T08:56:17.187Z,1064.93
2022-11-04T08:58:44.381Z,1067.03
2022-11-04T09:01:12.892Z,1070.78
2022-11-04T09:03:40.781Z,1072.15
2022-11-04T09:06:11.981Z,1068.78
2022-11-04T09:08:39.387Z,1069.07
2022-11-04T09:11:12.768Z,1065.75
2022-11-04T09:13:40.255Z,1061.47
2022-11-04T09:16:08.102Z,1068.97
2022-11-04T09:18:35.275Z,1068.18
2022-11-04T09:21:02.881Z,1069.68
2022-11-04T09:23:30.685Z,1077.43
2022-11-04T09:25:58.777Z,1074.88
2022-11-04T09:28:26.921Z,1076.13
2022-11-04T09:30:54.070Z,1078.63
2022-11-04T09:33:21.405Z,1071.10
2022-11-04T09:35:58.788Z,1078.07
2022-11-04T09:38:26.164Z,1080.63
2022-11-04T09:40:53.490Z,1074.97
2022-11-04T09:43:48.765Z,1080.78
2022-11-04T09:46:16.248Z,1078.40
2022-11-04T09:48:48.410Z,1077.72
2022-11-04T09:51:39.829Z,1002.92
2022-11-04T09:54:20.333Z,1081.88
2022-11-04T09:56:49.824Z,1078.78
2022-11-04T09:59:20.976Z,1085.77
2022-11-04T10:02:09.409Z,1081.82
2022-11-04T10:04:49.816Z,1083.80
2022-11-04T10:07:19.773Z,1087.20
2022-11-04T10:09:49.654Z,1086.85
2022-11-04T10:12:22.957Z,1082.05
2022-11-04T10:15:10.478Z,1101.25
2022-11-04T10:17:37.700Z,1100.05
2022-11-04T10:20:04.926Z,1104.47
2022-11-04T10:22:34.208Z,1106.38
2022-11-04T10:25:19.484Z,1106.53
2022-11-04T10:27:48.839Z,1105.37
2022-11-04T10:30:18.649Z,1106.87
2022-11-04T10:32:48.646Z,1103.68
2022-11-04T10:35:15.786Z,1107.30
2022-11-04T10:37:42.972Z,1103.90
2022-11-04T10:40:21.218Z,1112.25
2022-11-04T10:42:48.432Z,1106.40
2022-11-04T10:45:15.910Z,1098.07
2022-11-04T10:48:07.317Z,1097.38
2022-11-04T10:50:37.850Z,1100.90
2022-11-04T10:53:11.960Z,1099.50
2022-11-04T10:55:47.679Z,1098.45
2022-11-04T10:58:24.430Z,1096.47
2022-11-04T11:00:52.281Z,1092.07
2022-11-04T11:03:24.871Z,1091.33
2022-11-04T11:05:53.565Z,1086.82
2022-11-04T11:08:31.549Z,1086.97
2022-11-04T11:10:58.891Z,1086.15
2022-11-04T11:13:27.617Z,1089.13
2022-11-04T11:16:18.501Z,1089.75
2022-11-04T11:18:45.817Z,1096.07
2022-11-04T11:21:23.828Z,1086.55
2022-11-04T11:23:54.453Z,1083.80
2022-11-04T11:26:29.321Z,1082.43
2022-11-04T11:28:59.707Z,1082.25
2022-11-04T11:31:27.071Z,1083.10
2022-11-04T11:33:59.936Z,1080.55
2022-11-04T11:36:36.744Z,1075.80
2022-11-04T11:39:05.560Z,1076.13
2022-11-04T11:41:42.497Z,1087.60
2022-11-04T11:44:23.531Z,1077.38
2022-11-04T11:46:55.431Z,1085.68
2022-11-04T11:49:25.791Z,1085.90
2022-11-04T11:51:52.995Z,1084.20
2022-11-04T11:54:37.597Z,1083.87
2022-11-04T11:57:20.895Z,1091.75
2022-11-04T12:03:14.924Z,1083.20
2022-11-04T12:06:26.818Z,1084.83
2022-11-04T12:09:16.883Z,1082.83
2022-11-04T12:11:51.564Z,1084.97
2022-11-04T12:14:48.494Z,1081.80
2022-11-04T12:17:25.324Z,1082.67
2022-11-04T12:19:57.454Z,1081.33
2022-11-04T12:22:37.247Z,1076.90
2022-11-04T12:25:31.107Z,1082.80
2022-11-04T12:28:16.509Z,1084.10
2022-11-04T12:30:54.343Z,1080.97
2022-11-04T12:33:24.540Z,1085.43
2022-11-04T12:36:20.006Z,1086.55
2022-11-04T12:39:13.894Z,1087.82
2022-11-04T12:42:21.425Z,1090.47
2022-11-04T12:45:26.601Z,1084.55
2022-11-04T12:47:59.795Z,1090.85
2022-11-04T12:50:34.031Z,1086.40
2022-11-04T12:53:01.177Z,1084.50
2022-11-04T12:55:44.802Z,1079.60
2022-11-04T12:58:17.090Z,1082.35
2022-11-04T13:00:47.894Z,1080.40
2022-11-04T13:03:31.450Z,1077.00
2022-11-04T13:05:58.692Z,1078.93
2022-11-04T13:08:47.165Z,1078.63
2022-11-04T13:11:25.907Z,1087.07
2022-11-04T13:14:07.352Z,1081.78
2022-11-04T13:16:39.506Z,1079.63
2022-11-04T13:19:29.030Z,1076.97
2022-11-04T13:21:56.949Z,1085.32
2022-11-04T13:24:31.724Z,1081.93
2022-11-04T13:27:04.134Z,1082.90
2022-11-04T13:29:34.385Z,1080.60
2022-11-04T13:32:06.144Z,1086.35
2022-11-04T13:34:39.259Z,1086.73
2022-11-04T13:37:22.089Z,1080.70
2022-11-04T13:39:57.535Z,1079.18
2022-11-04T13:42:25.823Z,1083.18
2022-11-04T13:44:57.874Z,1078.97
2022-11-04T13:47:26.916Z,1079.43
2022-11-04T13:49:55.642Z,1078.10
2022-11-04T13:52:24.721Z,1082.80
2022-11-04T13:54:55.317Z,1077.57
2022-11-04T13:57:24.383Z,1074.93
2022-11-04T14:00:15.961Z,1079.47
2022-11-04T14:03:24.393Z,1077.47
2022-11-04T14:06:07.671Z,1077.63
2022-11-04T14:08:35.439Z,1079.63
2022-11-04T14:11:04.505Z,1076.78
2022-11-04T14:13:34.083Z,1075.85
2022-11-04T14:16:03.755Z,1072.75
2022-11-04T14:18:30.941Z,1079.93
2022-11-04T14:21:16.186Z,1075.95
2022-11-04T14:23:47.971Z,1071.97
2022-11-04T14:26:17.111Z,1071.50
2022-11-04T14:28:47.106Z,1068.07
2022-11-04T14:31:35.234Z,1071.95
2022-11-04T14:34:03.239Z,1073.10
2022-11-04T14:36:31.391Z,1072.88
2022-11-04T14:39:12.591Z,1073.75
2022-11-04T14:41:57.870Z,1076.63
2022-11-04T14:44:27.349Z,1074.50
2022-11-04T14:47:08.949Z,1077.33
2022-11-04T14:49:44.470Z,1069.80
2022-11-04T14:52:21.122Z,1074.75
2022-11-04T14:54:48.789Z,1074.80
2022-11-04T14:57:18.514Z,1077.53
2022-11-04T14:59:46.478Z,1069.05
2022-11-04T15:02:17.516Z,1074.78
2022-11-04T15:04:58.651Z,1078.25
2022-11-04T15:07:39.233Z,1077.22
2022-11-04T15:10:24.570Z,1096.80
2022-11-04T15:13:00.951Z,1089.93
2022-11-04T15:15:28.516Z,1078.68
2022-11-04T15:18:10.555Z,1077.93
2022-11-04T15:20:47.998Z,1080.10
2022-11-04T15:23:17.577Z,1077.30
2022-11-04T15:26:00.727Z,1073.03
2022-11-04T15:28:36.855Z,1076.13
2022-11-04T15:31:04.215Z,1077.50
2022-11-04T15:33:32.792Z,1082.80
2022-11-04T15:36:00.486Z,1083.43
2022-11-04T15:38:29.614Z,1086.90
2022-11-04T15:41:21.492Z,1081.40
2022-11-04T15:43:49.503Z,1079.07
2022-11-04T15:46:18.739Z,1078.50
2022-11-04T15:49:00.241Z,1080.18
2022-11-04T15:51:28.012Z,1081.97
2022-11-04T15:53:58.197Z,1082.10
2022-11-04T15:56:30.413Z,1077.72
2022-11-04T15:59:00.731Z,1076.55
2022-11-04T16:01:32.760Z,1070.20
2022-11-04T16:04:01.015Z,1073.88
2022-11-04T16:06:44.938Z,1076.55
2022-11-04T16:09:19.269Z,1074.57
2022-11-04T16:12:15.177Z,1071.97
2022-11-04T16:14:52.047Z,1073.20
2022-11-04T16:17:23.439Z,1070.87
2022-11-04T16:20:05.234Z,1074.18
2022-11-04T16:22:41.394Z,1072.20
2022-11-04T16:25:21.483Z,1075.65
2022-11-04T16:27:49.864Z,1076.53
2022-11-04T16:30:23.249Z,1079.78
2022-11-04T16:33:18.733Z,1078.85
2022-11-04T16:35:46.387Z,1077.60
2022-11-04T16:38:13.875Z,1071.73
2022-11-04T16:40:45.506Z,1075.00
2022-11-04T16:43:14.890Z,1072.68
2022-11-04T16:45:47.295Z,1072.05
2022-11-04T16:48:20.429Z,1075.32
2022-11-04T16:50:50.293Z,1066.22
2022-11-04T16:53:18.438Z,1070.07
2022-11-04T16:55:47.772Z,1070.20
2022-11-04T16:58:19.112Z,1075.60
2022-11-04T17:00:47.127Z,1071.93
2022-11-04T17:03:23.945Z,1075.55
2022-11-04T17:05:56.841Z,1074.85
2022-11-04T17:08:27.634Z,1083.25
2022-11-04T17:10:59.573Z,1069.35
2022-11-04T17:13:36.125Z,1076.38
2022-11-04T17:16:04.844Z,1074.65
2022-11-04T17:18:36.781Z,1077.22
2022-11-04T17:21:09.456Z,1076.85
2022-11-04T17:23:55.236Z,1076.07
2022-11-04T17:26:23.648Z,1073.30
2022-11-04T17:28:54.542Z,1077.10
2022-11-04T17:31:28.213Z,1070.43
2022-11-04T17:33:58.999Z,1073.88
2022-11-04T17:36:26.342Z,1073.55
2022-11-04T17:38:55.233Z,1071.60
2022-11-04T17:41:45.876Z,1070.35
2022-11-04T17:44:13.491Z,1071.03
2022-11-04T17:46:55.840Z,1067.97
2022-11-04T17:49:25.811Z,1062.25
2022-11-04T17:51:55.706Z,1066.40
2022-11-04T17:54:23.309Z,1073.05
2022-11-04T17:56:50.630Z,1069.78
2022-11-04T17:59:23.282Z,1070.63
2022-11-04T18:01:51.379Z,1072.13
2022-11-04T18:04:34.266Z,1065.63
2022-11-04T18:07:04.100Z,1072.82
2022-11-04T18:09:36.002Z,1067.30
2022-11-04T18:12:21.952Z,1070.93
2022-11-04T18:14:51.874Z,1067.63
2022-11-04T18:17:24.984Z,1066.70
2022-11-04T18:19:53.752Z,1075.15
2022-11-04T18:22:24.301Z,1073.78
2022-11-04T18:24:54.660Z,1067.20
2022-11-04T18:27:23.413Z,1065.18
2022-11-04T18:29:50.871Z,1069.90
2022-11-04T18:32:23.369Z,1064.90
2022-11-04T18:34:57.330Z,1062.07
2022-11-04T18:37:30.652Z,1066.73
2022-11-04T18:39:59.862Z,1066.65
2022-11-04T18:42:30.485Z,982.97
2022-11-04T18:44:58.168Z,182.77
2022-11-04T18:47:34.444Z,29.03
2022-11-04T18:50:02.163Z,24.77
2022-11-04T18:52:29.261Z,573.50
2022-11-04T18:54:57.689Z,1048.75
2022-11-04T18:57:27.345Z,1054.03
2022-11-04T18:59:56.582Z,1042.50
2022-11-04T19:02:25.751Z,1039.55
2022-11-04T19:04:53.639Z,1044.55
2022-11-04T19:07:22.790Z,1042.17
2022-11-04T19:09:55.661Z,1041.37
2022-11-04T19:12:42.652Z,1032.30
2022-11-04T19:15:11.046Z,1029.55
2022-11-04T19:17:38.559Z,1032.00
2022-11-04T19:20:12.177Z,1034.07
2022-11-04T19:22:44.170Z,1028.75
2022-11-04T19:25:12.517Z,1035.20
2022-11-04T19:28:05.209Z,1053.95
2022-11-04T19:30:35.846Z,1044.70
2022-11-04T19:33:08.682Z,1036.35
2022-11-04T19:35:37.464Z,1032.05
2022-11-04T19:38:07.334Z,1020.72
2022-11-04T19:40:35.042Z,1031.72
2022-11-04T19:43:11.616Z,1037.53
2022-11-04T19:45:40.265Z,1025.20
2022-11-04T19:48:15.539Z,1024.72
2022-11-04T19:50:51.899Z,1026.72
2022-11-04T19:53:22.825Z,1044.30
2022-11-04T19:56:09.165Z,1017.88
2022-11-04T19:58:37.659Z,1024.80
2022-11-04T20:01:05.876Z,1017.05
2022-11-04T20:03:35.291Z,1007.65
2022-11-04T20:06:04.244Z,1010.30
2022-11-04T20:08:33.252Z,1044.05
2022-11-04T20:11:06.865Z,1023.88
2022-11-04T20:13:50.213Z,1004.00
2022-11-04T20:16:18.731Z,1007.67
2022-11-04T20:18:52.626Z,996.40
2022-11-04T20:21:21.362Z,1000.22
2022-11-04T20:23:48.537Z,990.20
2022-11-04T20:26:27.158Z,980.95
2022-11-04T20:28:54.913Z,983.72
2022-11-04T20:31:43.834Z,983.97
2022-11-04T20:34:13.297Z,979.70
2022-11-04T20:36:44.302Z,989.67
2022-11-04T20:39:19.876Z,984.60
2022-11-04T20:41:49.639Z,992.23
2022-11-04T20:46:45.955Z,984.80
2022-11-04T20:51:55.185Z,993.40
2022-11-04T20:56:50.769Z,987.20
2022-11-04T20:59:18.622Z,980.50
2022-11-04T21:01:46.724Z,985.95
2022-11-04T21:04:18.624Z,981.85
2022-11-04T21:06:51.520Z,975.93
2022-11-04T21:09:20.992Z,979.20
2022-11-04T21:44:19.000Z,1030.50
